Terminal Aerodrome Forecast
Issued by NWS Corpus Christi, TX

Home | Current Version | Previous Version | Text Only | Print | Product List | Glossary On
Versions: 1 2 3 4 5 6 7 8 9 10 11 12 13 14 15 16 17 18 19 20 21 22 23 24 25 26 27 28 29 30 31 32
000
FTUS44 KCRP 232350
TAFVCT
TAF
KVCT 232350Z 2400/2424 14015KT P6SM SCT025 BKN040 OVC200
     FM240300 12008KT P6SM BKN020 OVC150
     FM241000 10008KT P6SM VCSH OVC012
      TEMPO 2412/2416 5SM -SHRA BKN010
     FM241600 14012G18KT P6SM VCSH BKN020 OVC100
      TEMPO 2416/2418 3SM TSRA OVC015CB
     FM241900 15017G24KT P6SM SCT025 BKN035=

USA.gov is the U.S. government's official web portal to all federal, state and local government web resources and services.